createdAt,value
2022-09-01T00:00:18.798Z,12.30
2022-09-01T00:02:47.964Z,11.40
2022-09-01T00:05:16.449Z,12.00
2022-09-01T00:07:46.257Z,12.40
2022-09-01T00:15:13.167Z,12.30
2022-09-01T00:17:41.253Z,11.70
2022-09-01T00:20:10.765Z,12.10
2022-09-01T00:22:38.862Z,12.10
2022-09-01T00:25:09.402Z,11.20
2022-09-01T00:27:37.802Z,12.10
2022-09-01T00:30:07.011Z,12.10
2022-09-01T00:32:35.052Z,12.00
2022-09-01T00:35:03.145Z,12.00
2022-09-01T00:37:31.211Z,12.00
2022-09-01T00:39:59.343Z,13.20
2022-09-01T00:42:28.887Z,11.90
2022-09-01T00:44:56.963Z,11.90
2022-09-01T00:47:25.073Z,11.80
2022-09-01T00:49:54.681Z,12.10
2022-09-01T00:52:30.846Z,12.00
2022-09-01T00:55:05.374Z,11.80
2022-09-01T00:57:35.234Z,13.00
2022-09-01T01:00:08.603Z,12.20
2022-09-01T01:05:06.373Z,12.00
2022-09-01T01:07:43.330Z,11.80
2022-09-01T01:12:45.691Z,12.00
2022-09-01T01:15:15.043Z,12.10
2022-09-01T01:17:43.105Z,12.00
2022-09-01T01:20:31.806Z,11.90
2022-09-01T01:23:09.089Z,11.60
2022-09-01T01:25:41.067Z,11.60
2022-09-01T01:28:13.571Z,11.50
2022-09-01T01:30:44.958Z,11.50
2022-09-01T01:33:13.119Z,11.30
2022-09-01T01:35:42.440Z,11.40
2022-09-01T01:38:11.250Z,11.40
2022-09-01T01:40:41.238Z,11.40
2022-09-01T01:43:12.257Z,11.40
2022-09-01T01:45:40.414Z,11.30
2022-09-01T01:48:08.731Z,11.20
2022-09-01T01:50:38.058Z,11.20
2022-09-01T01:53:10.825Z,11.30
2022-09-01T01:55:41.805Z,11.30
2022-09-01T01:58:12.076Z,11.40
2022-09-01T02:00:42.929Z,11.30
2022-09-01T02:03:12.844Z,11.30
2022-09-01T02:05:41.313Z,11.30
2022-09-01T02:08:11.353Z,11.50
2022-09-01T02:10:44.129Z,11.40
2022-09-01T02:13:16.513Z,11.40
2022-09-01T02:15:47.390Z,11.30
2022-09-01T02:18:18.423Z,11.20
2022-09-01T02:20:47.768Z,11.20
2022-09-01T02:23:20.211Z,10.20
2022-09-01T02:26:14.696Z,11.10
2022-09-01T02:28:42.528Z,11.20
2022-09-01T02:31:11.832Z,11.20
2022-09-01T02:33:44.205Z,11.00
2022-09-01T02:36:15.776Z,10.80
2022-09-01T02:38:46.726Z,10.80
2022-09-01T02:41:17.104Z,10.70
2022-09-01T02:46:15.278Z,10.80
2022-09-01T02:48:46.212Z,10.60
2022-09-01T02:53:46.023Z,10.60
2022-09-01T02:56:15.429Z,10.40
2022-09-01T02:58:47.216Z,10.40
2022-09-01T03:01:21.145Z,10.60
2022-09-01T03:11:15.830Z,10.40
2022-09-01T03:13:45.466Z,10.40
2022-09-01T03:16:14.154Z,10.20
2022-09-01T03:21:16.142Z,10.80
2022-09-01T03:23:45.668Z,10.80
2022-09-01T03:26:14.821Z,10.40
2022-09-01T03:28:44.324Z,10.60
2022-09-01T03:33:40.986Z,10.80
2022-09-01T03:36:14.920Z,10.40
2022-09-01T03:43:45.830Z,10.20
2022-09-01T03:46:20.320Z,10.10
2022-09-01T03:48:50.830Z,10.10
2022-09-01T03:51:22.763Z,10.10
2022-09-01T03:58:53.255Z,10.10
2022-09-01T04:01:23.258Z,10.10
2022-09-01T04:06:24.277Z,10.00
2022-09-01T04:08:55.662Z,10.10
2022-09-01T04:11:24.430Z,10.40
2022-09-01T04:13:52.903Z,10.20
2022-09-01T04:16:42.619Z,10.40
2022-09-01T04:19:20.135Z,10.70
2022-09-01T04:21:50.593Z,10.50
2022-09-01T04:24:19.389Z,10.40
2022-09-01T04:26:49.711Z,10.20
2022-09-01T04:29:24.234Z,10.40
2022-09-01T04:31:53.865Z,10.40
2022-09-01T04:36:54.227Z,10.60
2022-09-01T04:39:23.263Z,10.60
2022-09-01T04:41:51.405Z,10.70
2022-09-01T04:44:20.174Z,10.90
2022-09-01T04:46:50.717Z,10.80
2022-09-01T04:49:22.622Z,11.00
2022-09-01T04:51:54.146Z,10.90
2022-09-01T04:54:23.517Z,11.00
2022-09-01T04:56:54.064Z,11.60
2022-09-01T04:59:24.686Z,10.90
2022-09-01T05:04:28.193Z,11.50
2022-09-01T05:06:59.772Z,10.90
2022-09-01T05:09:29.997Z,10.90
2022-09-01T05:12:11.046Z,11.00
2022-09-01T05:14:45.166Z,11.10
2022-09-01T05:17:14.506Z,11.10
2022-09-01T05:19:47.750Z,11.10
2022-09-01T05:22:18.729Z,11.10
2022-09-01T05:24:46.881Z,11.20
2022-09-01T05:27:17.696Z,11.20
2022-09-01T05:29:46.964Z,11.30
2022-09-01T05:32:15.027Z,11.40
2022-09-01T05:34:46.141Z,11.40
2022-09-01T05:37:14.630Z,11.50
2022-09-01T05:39:42.703Z,12.80
2022-09-01T05:42:10.776Z,11.60
2022-09-01T05:44:44.095Z,11.70
2022-09-01T05:47:20.569Z,11.70
2022-09-01T05:49:50.913Z,11.80
2022-09-01T05:52:25.611Z,11.90
2022-09-01T05:55:00.067Z,12.00
2022-09-01T05:57:34.636Z,11.90
2022-09-01T06:00:11.023Z,12.40
2022-09-01T06:02:41.124Z,12.40
2022-09-01T06:05:15.302Z,12.50
2022-09-01T06:07:44.342Z,12.60
2022-09-01T06:10:13.001Z,12.60
2022-09-01T06:12:41.108Z,12.70
2022-09-01T06:15:16.146Z,12.80
2022-09-01T06:17:46.098Z,12.80
2022-09-01T06:20:18.308Z,12.90
2022-09-01T06:22:47.703Z,12.90
2022-09-01T06:25:17.440Z,13.20
2022-09-01T06:27:46.048Z,13.40
2022-09-01T06:30:23.900Z,13.60
2022-09-01T06:32:53.574Z,13.50
2022-09-01T06:35:29.931Z,13.20
2022-09-01T06:37:58.492Z,13.60
2022-09-01T06:40:26.636Z,14.00
2022-09-01T06:42:54.948Z,13.80
2022-09-01T06:45:24.892Z,14.00
2022-09-01T06:47:59.982Z,14.00
2022-09-01T06:56:09.007Z,14.30
2022-09-01T06:58:38.459Z,14.40
2022-09-01T07:01:16.079Z,14.50
2022-09-01T07:03:45.226Z,14.60
2022-09-01T07:12:24.889Z,14.80
2022-09-01T07:17:30.683Z,15.00
2022-09-01T07:20:23.177Z,15.30
2022-09-01T07:23:05.524Z,15.30
2022-09-01T07:28:37.671Z,15.60
2022-09-01T07:39:48.386Z,15.60
2022-09-01T07:39:57.488Z,13.70
2022-09-01T07:42:56.124Z,14.70
2022-09-01T07:45:26.167Z,15.70
2022-09-01T07:47:55.359Z,15.90
2022-09-01T07:50:38.729Z,16.10
2022-09-01T07:53:10.370Z,16.10
2022-09-01T07:55:44.120Z,16.20
2022-09-01T07:58:13.187Z,16.20
2022-09-01T08:00:44.487Z,16.30
2022-09-01T08:03:12.813Z,16.30
2022-09-01T08:05:41.252Z,16.30
2022-09-01T08:08:28.733Z,16.30
2022-09-01T08:11:05.843Z,16.40
2022-09-01T08:13:38.824Z,16.30
2022-09-01T08:16:17.990Z,16.30
2022-09-01T08:18:48.762Z,16.30
2022-09-01T08:21:18.005Z,16.50
2022-09-01T08:23:46.193Z,16.50
2022-09-01T08:26:18.140Z,16.40
2022-09-01T08:28:54.336Z,16.50
2022-09-01T08:31:23.557Z,16.80
2022-09-01T08:33:52.255Z,16.70
2022-09-01T08:36:24.055Z,16.80
2022-09-01T08:38:54.194Z,16.60
2022-09-01T08:41:36.321Z,16.60
2022-09-01T08:44:12.346Z,16.60
2022-09-01T08:46:42.554Z,16.60
2022-09-01T08:49:25.328Z,16.60
2022-09-01T08:51:59.053Z,16.50
2022-09-01T08:54:36.288Z,16.60
2022-09-01T08:57:11.030Z,16.80
2022-09-01T08:59:39.240Z,16.90
2022-09-01T09:02:28.623Z,17.00
2022-09-01T09:05:15.484Z,17.00
2022-09-01T09:08:07.738Z,17.00
2022-09-01T09:10:43.704Z,17.10
2022-09-01T09:13:22.865Z,17.30
2022-09-01T09:16:07.430Z,17.30
2022-09-01T09:18:54.721Z,17.20
2022-09-01T09:21:29.867Z,17.20
2022-09-01T09:24:03.481Z,17.20
2022-09-01T09:26:47.821Z,17.20
2022-09-01T09:29:18.194Z,17.30
2022-09-01T09:31:49.924Z,17.40
2022-09-01T09:34:34.933Z,17.40
2022-09-01T09:37:27.686Z,17.30
2022-09-01T09:40:10.484Z,17.30
2022-09-01T09:42:39.935Z,17.40
2022-09-01T09:45:24.745Z,17.30
2022-09-01T09:47:54.402Z,17.40
2022-09-01T09:50:26.343Z,17.50
2022-09-01T09:53:11.253Z,17.60
2022-09-01T09:55:56.059Z,17.80
2022-09-01T09:58:27.595Z,17.90
2022-09-01T10:01:06.392Z,17.70
2022-09-01T10:03:42.361Z,17.80
2022-09-01T10:06:13.626Z,17.90
2022-09-01T10:08:48.201Z,17.90
2022-09-01T10:11:35.808Z,18.00
2022-09-01T10:14:07.993Z,17.90
2022-09-01T10:16:39.826Z,18.00
2022-09-01T10:19:12.675Z,18.20
2022-09-01T10:21:43.285Z,18.20
2022-09-01T10:24:21.457Z,18.10
2022-09-01T10:26:55.035Z,18.10
2022-09-01T10:29:27.943Z,18.20
2022-09-01T10:32:28.073Z,18.40
2022-09-01T10:34:47.525Z,18.40
2022-09-01T10:37:16.377Z,18.50
2022-09-01T10:40:14.860Z,18.70
2022-09-01T10:42:45.574Z,18.70
2022-09-01T10:45:32.083Z,18.90
2022-09-01T10:48:47.864Z,19.00
2022-09-01T10:51:56.716Z,19.20
2022-09-01T10:54:57.876Z,19.50
2022-09-01T10:57:47.878Z,19.40
2022-09-01T11:03:52.821Z,19.00
2022-09-01T11:07:26.883Z,18.70
2022-09-01T11:10:31.838Z,18.60
2022-09-01T11:13:33.388Z,18.90
2022-09-01T11:16:50.056Z,19.00
2022-09-01T11:19:38.677Z,19.10
2022-09-01T11:22:23.007Z,19.00
2022-09-01T11:25:14.410Z,18.90
2022-09-01T11:28:03.392Z,18.90
2022-09-01T11:30:38.847Z,19.10
2022-09-01T11:33:18.562Z,19.20
2022-09-01T11:35:48.616Z,19.10
2022-09-01T11:38:19.692Z,19.00
2022-09-01T11:40:57.006Z,19.30
2022-09-01T11:43:27.256Z,19.40
2022-09-01T11:46:07.069Z,19.40
2022-09-01T11:48:36.006Z,19.40
2022-09-01T11:51:05.730Z,19.60
2022-09-01T11:53:34.237Z,19.60
2022-09-01T11:56:14.882Z,19.50
2022-09-01T11:58:43.166Z,19.40
2022-09-01T12:01:18.508Z,19.40
2022-09-01T12:03:49.641Z,19.20
2022-09-01T12:06:23.847Z,19.00
2022-09-01T12:09:00.290Z,19.00
2022-09-01T12:11:31.467Z,19.20
2022-09-01T12:14:02.227Z,19.40
2022-09-01T12:16:36.795Z,20.00
2022-09-01T12:19:06.631Z,20.00
2022-09-01T12:21:40.533Z,19.90
2022-09-01T12:24:14.678Z,19.90
2022-09-01T12:26:43.269Z,19.90
2022-09-01T12:29:13.794Z,19.80
2022-09-01T12:31:43.397Z,20.00
2022-09-01T12:34:26.595Z,20.30
2022-09-01T12:37:07.906Z,20.20
2022-09-01T12:39:37.981Z,20.40
2022-09-01T12:42:10.836Z,20.70
2022-09-01T12:44:50.611Z,21.30
2022-09-01T12:47:50.830Z,21.40
2022-09-01T12:50:38.155Z,21.70
2022-09-01T12:53:17.238Z,21.00
2022-09-01T12:55:57.269Z,20.80
2022-09-01T12:58:27.650Z,20.50
2022-09-01T13:00:58.516Z,20.10
2022-09-01T13:03:29.552Z,20.00
2022-09-01T13:05:59.128Z,20.00
2022-09-01T13:08:30.886Z,20.10
2022-09-01T13:11:03.082Z,20.40
2022-09-01T13:13:31.550Z,21.10
2022-09-01T13:16:01.625Z,20.90
2022-09-01T13:18:30.985Z,20.60
2022-09-01T13:20:59.957Z,20.40
2022-09-01T13:23:29.424Z,20.30
2022-09-01T13:25:59.012Z,20.10
2022-09-01T13:28:28.003Z,19.90
2022-09-01T13:36:44.890Z,19.70
2022-09-01T13:39:17.306Z,21.10
2022-09-01T13:41:47.542Z,22.00
2022-09-01T13:44:17.293Z,22.90
2022-09-01T13:47:28.281Z,23.70
2022-09-01T13:49:42.485Z,23.70
2022-09-01T13:52:13.116Z,23.00
2022-09-01T13:54:44.305Z,22.10
2022-09-01T13:57:12.767Z,21.90
2022-09-01T13:59:41.904Z,21.30
2022-09-01T14:02:10.135Z,21.20
2022-09-01T14:04:38.571Z,21.00
2022-09-01T14:07:06.769Z,20.80
2022-09-01T14:09:35.171Z,21.00
2022-09-01T14:12:05.377Z,21.00
2022-09-01T14:17:23.085Z,20.50
2022-09-01T14:19:51.596Z,20.50
2022-09-01T14:22:19.840Z,20.50
2022-09-01T14:24:47.916Z,20.40
2022-09-01T14:27:17.377Z,20.30
2022-09-01T14:29:50.318Z,20.30
2022-09-01T14:32:27.120Z,20.20
2022-09-01T14:34:55.924Z,20.00
2022-09-01T14:37:24.138Z,20.10
2022-09-01T14:39:52.678Z,21.30
2022-09-01T14:42:25.756Z,20.40
2022-09-01T14:44:53.972Z,20.80
2022-09-01T14:47:24.802Z,21.80
2022-09-01T14:49:53.491Z,21.70
2022-09-01T14:52:22.278Z,21.20
2022-09-01T14:54:51.357Z,20.80
2022-09-01T14:57:37.869Z,20.60
2022-09-01T15:00:12.082Z,20.30
2022-09-01T15:02:41.510Z,20.10
2022-09-01T15:05:11.199Z,20.80
2022-09-01T15:07:39.708Z,22.20
2022-09-01T15:10:09.379Z,23.30
2022-09-01T15:12:39.820Z,24.10
2022-09-01T15:15:16.228Z,24.50
2022-09-01T15:17:46.464Z,24.80
2022-09-01T15:20:29.081Z,25.00
2022-09-01T15:22:57.531Z,25.20
2022-09-01T15:25:25.751Z,24.10
2022-09-01T15:27:53.830Z,24.10
2022-09-01T15:30:23.365Z,24.80
2022-09-01T15:32:54.089Z,25.30
2022-09-01T15:35:23.428Z,25.20
2022-09-01T15:37:56.507Z,25.40
2022-09-01T15:40:25.823Z,25.60
2022-09-01T15:42:54.796Z,25.90
2022-09-01T15:45:25.974Z,25.90
2022-09-01T15:47:54.482Z,25.90
2022-09-01T15:50:25.726Z,25.90
2022-09-01T15:52:58.724Z,26.10
2022-09-01T15:55:28.875Z,26.20
2022-09-01T15:57:57.760Z,25.90
2022-09-01T16:00:28.449Z,25.90
2022-09-01T16:02:57.792Z,26.00
2022-09-01T16:05:27.315Z,26.00
2022-09-01T16:10:32.392Z,24.70
2022-09-01T16:13:03.180Z,24.60
2022-09-01T16:15:33.039Z,24.90
2022-09-01T16:18:23.661Z,24.80
2022-09-01T16:21:00.264Z,24.50
2022-09-01T16:23:35.124Z,24.60
2022-09-01T16:26:03.251Z,24.90
2022-09-01T16:28:35.699Z,25.10
2022-09-01T16:31:11.827Z,24.40
2022-09-01T16:33:40.343Z,24.20
2022-09-01T16:36:25.517Z,23.70
2022-09-01T16:38:59.895Z,23.40
2022-09-01T16:41:43.915Z,23.40
2022-09-01T16:44:25.442Z,23.00
2022-09-01T16:47:02.913Z,23.00
2022-09-01T16:49:37.036Z,22.60
2022-09-01T16:52:16.848Z,22.10
2022-09-01T16:54:58.791Z,22.20
2022-09-01T16:57:36.152Z,21.80
2022-09-01T17:00:08.065Z,21.40
2022-09-01T17:02:47.878Z,21.20
2022-09-01T17:05:25.757Z,20.90
2022-09-01T17:07:59.269Z,20.50
2022-09-01T17:10:41.120Z,19.90
2022-09-01T17:13:20.128Z,19.80
2022-09-01T17:15:56.222Z,19.60
2022-09-01T17:18:34.936Z,19.40
2022-09-01T17:21:11.222Z,19.00
2022-09-01T17:23:46.602Z,19.00
2022-09-01T17:26:20.607Z,18.80
2022-09-01T17:28:55.298Z,18.60
2022-09-01T17:31:52.586Z,18.50
2022-09-01T17:34:31.250Z,17.60
2022-09-01T17:37:11.923Z,18.00
2022-09-01T17:39:51.999Z,17.90
2022-09-01T17:42:30.248Z,17.80
2022-09-01T17:45:07.187Z,17.70
2022-09-01T17:47:43.618Z,17.50
2022-09-01T17:50:19.937Z,17.30
2022-09-01T17:52:55.775Z,17.00
2022-09-01T17:55:43.454Z,17.00
2022-09-01T17:58:23.792Z,16.90
2022-09-01T18:01:01.751Z,16.80
2022-09-01T18:03:59.794Z,16.60
2022-09-01T18:06:35.611Z,16.50
2022-09-01T18:09:04.798Z,16.50
2022-09-01T18:11:44.450Z,16.30
2022-09-01T18:14:16.289Z,16.30
2022-09-01T18:17:04.055Z,16.10
2022-09-01T18:19:38.431Z,16.00
2022-09-01T18:22:11.606Z,15.90
2022-09-01T18:24:48.931Z,15.90
2022-09-01T18:27:17.177Z,15.90
2022-09-01T18:29:46.846Z,15.80
2022-09-01T18:32:29.618Z,16.00
2022-09-01T18:35:29.152Z,15.70
2022-09-01T18:38:26.341Z,15.60
2022-09-01T18:41:23.223Z,15.70
2022-09-01T18:43:57.336Z,15.60
2022-09-01T18:46:32.971Z,15.60
2022-09-01T18:49:15.736Z,15.50
2022-09-01T18:52:00.656Z,15.50
2022-09-01T18:54:42.788Z,15.40
2022-09-01T18:57:18.861Z,16.00
2022-09-01T19:00:03.087Z,14.90
2022-09-01T19:03:01.192Z,15.20
2022-09-01T19:05:43.498Z,15.30
2022-09-01T19:08:23.046Z,15.10
2022-09-01T19:11:02.834Z,14.90
2022-09-01T19:13:44.098Z,14.80
2022-09-01T19:16:19.958Z,14.90
2022-09-01T19:18:54.063Z,14.90
2022-09-01T19:21:25.542Z,14.90
2022-09-01T19:24:00.383Z,14.70
2022-09-01T19:26:38.086Z,15.00
2022-09-01T19:29:09.858Z,14.20
2022-09-01T19:31:45.768Z,14.60
2022-09-01T19:34:16.597Z,14.70
2022-09-01T19:36:48.254Z,14.10
2022-09-01T19:39:18.674Z,14.60
2022-09-01T19:41:54.669Z,14.40
2022-09-01T19:44:29.682Z,14.20
2022-09-01T19:47:04.139Z,14.70
2022-09-01T19:49:39.213Z,14.10
2022-09-01T19:52:11.802Z,14.00
2022-09-01T19:54:48.138Z,13.40
2022-09-01T19:57:23.616Z,13.70
2022-09-01T19:59:58.934Z,14.30
2022-09-01T20:02:32.049Z,13.60
2022-09-01T20:05:07.729Z,13.50
2022-09-01T20:07:44.057Z,13.90
2022-09-01T20:10:23.257Z,13.80
2022-09-01T20:13:06.819Z,13.80
2022-09-01T20:15:40.090Z,13.70
2022-09-01T20:18:15.280Z,13.10
2022-09-01T20:20:48.097Z,13.70
2022-09-01T20:23:22.489Z,13.70
2022-09-01T20:25:56.570Z,13.70
2022-09-01T20:28:45.394Z,13.50
2022-09-01T20:31:22.993Z,13.90
2022-09-01T20:33:56.171Z,14.10
2022-09-01T20:36:32.064Z,13.40
2022-09-01T20:39:24.165Z,13.40
2022-09-01T20:41:58.206Z,13.20
2022-09-01T20:44:38.880Z,12.70
2022-09-01T20:47:07.844Z,13.40
2022-09-01T20:49:38.388Z,12.40
2022-09-01T20:52:14.483Z,13.30
2022-09-01T20:54:50.181Z,13.30
2022-09-01T20:57:30.225Z,13.30
2022-09-01T21:00:03.985Z,13.20
2022-09-01T21:02:45.552Z,13.40
2022-09-01T21:05:23.406Z,13.10
2022-09-01T21:08:01.821Z,13.00
2022-09-01T21:10:36.500Z,13.30
2022-09-01T21:13:15.070Z,13.10
2022-09-01T21:15:50.886Z,12.90
2022-09-01T21:18:34.100Z,12.70
2022-09-01T21:21:10.691Z,12.90
2022-09-01T21:23:38.748Z,12.80
2022-09-01T21:26:06.837Z,12.80
2022-09-01T21:28:35.611Z,12.70
2022-09-01T21:31:08.067Z,12.50
2022-09-01T21:33:36.335Z,12.50
2022-09-01T21:36:05.279Z,12.70
2022-09-01T21:41:02.636Z,12.50
2022-09-01T21:43:33.687Z,12.60
2022-09-01T21:46:02.475Z,12.50
2022-09-01T21:48:32.323Z,12.40
2022-09-01T21:51:00.368Z,12.40
2022-09-01T21:53:28.527Z,12.30
2022-09-01T21:55:56.599Z,12.20
2022-09-01T21:58:24.740Z,12.10
2022-09-01T22:00:53.016Z,12.10
2022-09-01T22:03:21.207Z,12.10
2022-09-01T22:05:51.346Z,12.00
2022-09-01T22:08:19.400Z,12.00
2022-09-01T22:10:51.539Z,12.10
2022-09-01T22:13:21.517Z,12.00
2022-09-01T22:15:51.940Z,12.00
2022-09-01T22:18:21.377Z,12.00
2022-09-01T22:20:51.057Z,11.90
2022-09-01T22:23:20.407Z,11.80
2022-09-01T22:25:49.000Z,11.90
2022-09-01T22:28:17.010Z,11.90
2022-09-01T22:30:46.917Z,11.80
2022-09-01T22:33:15.835Z,11.70
2022-09-01T22:35:45.701Z,11.70
2022-09-01T22:38:15.735Z,11.60
2022-09-01T22:40:47.736Z,11.50
2022-09-01T22:43:18.361Z,11.70
2022-09-01T22:45:48.054Z,11.70
2022-09-01T22:48:16.767Z,11.70
2022-09-01T22:50:46.425Z,11.60
2022-09-01T22:53:17.355Z,11.60
2022-09-01T22:55:48.525Z,11.60
2022-09-01T22:58:17.427Z,11.60
2022-09-01T23:00:48.177Z,11.50
2022-09-01T23:03:16.818Z,11.50
2022-09-01T23:05:45.469Z,11.50
2022-09-01T23:08:16.020Z,11.40
2022-09-01T23:10:44.317Z,11.50
2022-09-01T23:13:12.342Z,11.50
2022-09-01T23:15:40.398Z,11.60
2022-09-01T23:18:08.897Z,11.60
2022-09-01T23:20:37.003Z,11.60
2022-09-01T23:23:05.224Z,11.50
2022-09-01T23:25:34.660Z,11.60
2022-09-01T23:28:02.852Z,11.70
2022-09-01T23:30:30.923Z,11.60
2022-09-01T23:32:58.982Z,11.60
2022-09-01T23:35:27.117Z,11.60
2022-09-01T23:37:55.279Z,11.60
2022-09-01T23:40:23.439Z,11.60
2022-09-01T23:42:52.862Z,11.50
2022-09-01T23:45:21.373Z,11.40
2022-09-01T23:47:49.395Z,11.50
2022-09-01T23:50:17.454Z,11.40
2022-09-01T23:52:46.141Z,11.30
2022-09-01T23:55:14.315Z,11.20
2022-09-01T23:57:42.346Z,11.10
